Hyde Park, MA (02136)

1:30 PM EST on December 02, 2016 (GMT -0500)
Roslindale | | Change Station

Elev 82 ft 42.28 °N, 71.12 °W | Updated 9 minutes ago

Partly Cloudy
Partly Cloudy
55.0 °F
Feels Like 55.0 °F
N
1.2
Wind Variable Wind from WNW
Gusts 4.3 mph

Today
High -- | Low -- °F
--% Chance of Precip.
Yesterday
High -- | Low -- °F
Precip. -- in
Pressure 29.75 in
Visibility 10.0 miles
Clouds Few 4200 ft
Dew Point 52 °F
Humidity 91%
Rainfall 0.00 in
Snow Depth Not available.
6:55 AM 4:12 PM
Waxing Crescent, 10% visible
METAR KOWD 021753Z 25013KT 10SM FEW042 11/M01 A2975 RMK AO2 SLP072 T01061006 10106 20022 56012
Pressure 29.75 in
Visibility 10.0 miles
Clouds Few 4200 ft
Dew Point 52 °F
Humidity 91%
Rainfall 0.00 in
Snow Depth Not available.
6:55 AM 4:12 PM
Waxing Crescent, 10% visible
METAR KOWD 021753Z 25013KT 10SM FEW042 11/M01 A2975 RMK AO2 SLP072 T01061006 10106 20022 56012

10-Day Weather Forecast

Almanac

Astronomy

Dec. 02, 2016 Rise Set
Actual Time
Civil Twilight
Nautical Twilight
Astronomical Twilight
Moon
Length of Visible Light
Length of Day
Tomorrow will be .
, % of the Moon is Illuminated

Today's Extremes

State Highs State Lows

Community

WunderPhotos

Upload Photos

1,955,335 photos uploaded!

WunderBlog® & News

Nearby

Air Quality

  Air Quality AQ Index Pollutant
Not available.

Snow Depth

Station Depth Elevation

Earthquake Activity

City Distance Mag. Time & Date
Minimum magnitude displayed is 2.5.

Coastal Water Temperatures

Place Temperature

Stations

Nearby Weather Stations

Station Location Temp. Windchill Dew Point Humidity Wind Precip. Elev Updated Type
                   

Watches & Warnings

There are currently no watches in effect.